sensor_id;sensor_type;location;lat;lon;timestamp;pressure;altitude;pressure_sealevel;temperature
68027;BMP180;54819;48.030;14.710;2023-03-24T00:00:26;97061.80;;;13.60
68027;BMP180;54819;48.030;14.710;2023-03-24T00:02:52;97060.00;;;13.66
68027;BMP180;54819;48.030;14.710;2023-03-24T00:05:21;97064.20;;;13.68
68027;BMP180;54819;48.030;14.710;2023-03-24T00:07:49;97058.60;;;13.70
68027;BMP180;54819;48.030;14.710;2023-03-24T00:10:21;97053.20;;;13.70
68027;BMP180;54819;48.030;14.710;2023-03-24T00:12:50;97055.20;;;13.70
68027;BMP180;54819;48.030;14.710;2023-03-24T00:15:19;97049.40;;;13.70
68027;BMP180;54819;48.030;14.710;2023-03-24T00:17:48;97050.60;;;13.70
68027;BMP180;54819;48.030;14.710;2023-03-24T00:20:19;97052.80;;;13.62
68027;BMP180;54819;48.030;14.710;2023-03-24T00:22:50;97059.20;;;13.60
68027;BMP180;54819;48.030;14.710;2023-03-24T00:25:26;97054.20;;;13.50
68027;BMP180;54819;48.030;14.710;2023-03-24T00:27:55;97055.40;;;13.30
68027;BMP180;54819;48.030;14.710;2023-03-24T00:30:23;97052.60;;;13.20
68027;BMP180;54819;48.030;14.710;2023-03-24T00:32:51;97053.00;;;13.10
68027;BMP180;54819;48.030;14.710;2023-03-24T00:35:18;97048.20;;;13.00
68027;BMP180;54819;48.030;14.710;2023-03-24T00:37:46;97039.40;;;13.00
68027;BMP180;54819;48.030;14.710;2023-03-24T00:40:16;97040.20;;;12.90
68027;BMP180;54819;48.030;14.710;2023-03-24T00:42:46;97043.40;;;12.90
68027;BMP180;54819;48.030;14.710;2023-03-24T00:45:21;97042.60;;;12.90
68027;BMP180;54819;48.030;14.710;2023-03-24T00:47:50;97044.00;;;12.90
68027;BMP180;54819;48.030;14.710;2023-03-24T00:50:21;97043.60;;;12.90
68027;BMP180;54819;48.030;14.710;2023-03-24T00:52:53;97037.00;;;12.90
68027;BMP180;54819;48.030;14.710;2023-03-24T00:55:21;97036.80;;;12.90
68027;BMP180;54819;48.030;14.710;2023-03-24T00:57:48;97034.20;;;12.90
68027;BMP180;54819;48.030;14.710;2023-03-24T01:00:23;97035.60;;;12.90
68027;BMP180;54819;48.030;14.710;2023-03-24T01:02:54;97038.80;;;12.90
68027;BMP180;54819;48.030;14.710;2023-03-24T01:05:26;97039.00;;;12.82
68027;BMP180;54819;48.030;14.710;2023-03-24T01:07:59;97035.00;;;12.80
68027;BMP180;54819;48.030;14.710;2023-03-24T01:10:34;97030.60;;;12.80
68027;BMP180;54819;48.030;14.710;2023-03-24T01:13:01;97027.40;;;12.80
68027;BMP180;54819;48.030;14.710;2023-03-24T01:15:33;97028.00;;;12.80
68027;BMP180;54819;48.030;14.710;2023-03-24T01:18:00;97032.20;;;12.80
68027;BMP180;54819;48.030;14.710;2023-03-24T01:20:29;97031.40;;;12.80
68027;BMP180;54819;48.030;14.710;2023-03-24T01:23:03;97032.40;;;12.80
68027;BMP180;54819;48.030;14.710;2023-03-24T01:25:35;97028.60;;;12.80
68027;BMP180;54819;48.030;14.710;2023-03-24T01:28:03;97021.60;;;12.80
68027;BMP180;54819;48.030;14.710;2023-03-24T01:30:30;97016.40;;;12.80
68027;BMP180;54819;48.030;14.710;2023-03-24T01:32:57;97017.20;;;12.80
68027;BMP180;54819;48.030;14.710;2023-03-24T01:35:25;97017.60;;;12.80
68027;BMP180;54819;48.030;14.710;2023-03-24T01:37:57;97017.40;;;12.80
68027;BMP180;54819;48.030;14.710;2023-03-24T01:40:30;97019.20;;;12.80
68027;BMP180;54819;48.030;14.710;2023-03-24T01:42:59;97020.00;;;12.80
68027;BMP180;54819;48.030;14.710;2023-03-24T01:51:15;97003.40;;;12.80
68027;BMP180;54819;48.030;14.710;2023-03-24T01:53:53;97001.00;;;12.80
68027;BMP180;54819;48.030;14.710;2023-03-24T01:56:23;96997.80;;;12.80
68027;BMP180;54819;48.030;14.710;2023-03-24T01:58:57;96987.00;;;12.80
68027;BMP180;54819;48.030;14.710;2023-03-24T02:01:33;96985.00;;;12.80
68027;BMP180;54819;48.030;14.710;2023-03-24T02:04:20;96983.00;;;12.80
68027;BMP180;54819;48.030;14.710;2023-03-24T02:06:47;96984.20;;;12.80
68027;BMP180;54819;48.030;14.710;2023-03-24T02:09:14;96983.40;;;12.80
68027;BMP180;54819;48.030;14.710;2023-03-24T02:11:43;96976.60;;;12.78
68027;BMP180;54819;48.030;14.710;2023-03-24T02:14:11;96974.40;;;12.80
68027;BMP180;54819;48.030;14.710;2023-03-24T02:28:36;96956.80;;;12.80
68027;BMP180;54819;48.030;14.710;2023-03-24T02:31:20;96949.00;;;12.80
68027;BMP180;54819;48.030;14.710;2023-03-24T02:37:45;96948.20;;;12.90
68027;BMP180;54819;48.030;14.710;2023-03-24T02:40:31;96949.00;;;12.90
68027;BMP180;54819;48.030;14.710;2023-03-24T02:43:12;96938.20;;;12.90
68027;BMP180;54819;48.030;14.710;2023-03-24T02:52:15;96927.40;;;12.90
68027;BMP180;54819;48.030;14.710;2023-03-24T02:54:56;96926.00;;;12.90
68027;BMP180;54819;48.030;14.710;2023-03-24T02:57:51;96920.40;;;12.90
68027;BMP180;54819;48.030;14.710;2023-03-24T03:00:55;96917.40;;;12.90
68027;BMP180;54819;48.030;14.710;2023-03-24T03:03:52;96913.20;;;13.00
68027;BMP180;54819;48.030;14.710;2023-03-24T03:06:37;96905.00;;;13.00
68027;BMP180;54819;48.030;14.710;2023-03-24T03:09:11;96899.60;;;13.00
68027;BMP180;54819;48.030;14.710;2023-03-24T03:11:44;96898.60;;;13.00
68027;BMP180;54819;48.030;14.710;2023-03-24T03:14:19;96894.80;;;13.00
68027;BMP180;54819;48.030;14.710;2023-03-24T03:16:58;96893.00;;;13.00
68027;BMP180;54819;48.030;14.710;2023-03-24T03:19:50;96890.60;;;13.10
68027;BMP180;54819;48.030;14.710;2023-03-24T03:22:28;96880.80;;;13.10
68027;BMP180;54819;48.030;14.710;2023-03-24T03:25:01;96879.40;;;13.10
68027;BMP180;54819;48.030;14.710;2023-03-24T03:27:34;96880.20;;;13.10
68027;BMP180;54819;48.030;14.710;2023-03-24T03:30:20;96883.20;;;13.20
68027;BMP180;54819;48.030;14.710;2023-03-24T03:32:55;96886.00;;;13.20
68027;BMP180;54819;48.030;14.710;2023-03-24T03:39:05;96884.60;;;13.28
68027;BMP180;54819;48.030;14.710;2023-03-24T03:41:37;96873.80;;;13.30
68027;BMP180;54819;48.030;14.710;2023-03-24T03:44:05;96864.40;;;13.30
68027;BMP180;54819;48.030;14.710;2023-03-24T03:46:34;96859.00;;;13.30
68027;BMP180;54819;48.030;14.710;2023-03-24T03:49:03;96860.00;;;13.30
68027;BMP180;54819;48.030;14.710;2023-03-24T03:51:33;96856.00;;;13.36
68027;BMP180;54819;48.030;14.710;2023-03-24T03:54:04;96854.40;;;13.40
68027;BMP180;54819;48.030;14.710;2023-03-24T03:56:34;96848.80;;;13.40
68027;BMP180;54819;48.030;14.710;2023-03-24T03:59:33;96841.20;;;13.40
68027;BMP180;54819;48.030;14.710;2023-03-24T04:08:42;96838.20;;;13.40
68027;BMP180;54819;48.030;14.710;2023-03-24T04:11:35;96838.60;;;13.40
68027;BMP180;54819;48.030;14.710;2023-03-24T04:21:06;96834.00;;;13.40
68027;BMP180;54819;48.030;14.710;2023-03-24T04:23:54;96836.20;;;13.40
68027;BMP180;54819;48.030;14.710;2023-03-24T04:26:46;96835.80;;;13.40
68027;BMP180;54819;48.030;14.710;2023-03-24T04:35:21;96823.00;;;13.40
68027;BMP180;54819;48.030;14.710;2023-03-24T04:38:26;96816.80;;;13.40
68027;BMP180;54819;48.030;14.710;2023-03-24T04:41:06;96808.80;;;13.40
68027;BMP180;54819;48.030;14.710;2023-03-24T04:43:34;96811.40;;;13.40
68027;BMP180;54819;48.030;14.710;2023-03-24T04:46:05;96803.20;;;13.34
68027;BMP180;54819;48.030;14.710;2023-03-24T04:48:57;96809.60;;;13.30
68027;BMP180;54819;48.030;14.710;2023-03-24T04:51:31;96808.00;;;13.30
68027;BMP180;54819;48.030;14.710;2023-03-24T04:54:01;96809.20;;;13.24
68027;BMP180;54819;48.030;14.710;2023-03-24T04:56:30;96800.60;;;13.20
68027;BMP180;54819;48.030;14.710;2023-03-24T04:59:05;96798.60;;;13.20
68027;BMP180;54819;48.030;14.710;2023-03-24T05:01:33;96798.80;;;13.18
68027;BMP180;54819;48.030;14.710;2023-03-24T05:04:23;96800.80;;;13.20
68027;BMP180;54819;48.030;14.710;2023-03-24T05:06:50;96805.00;;;13.20
68027;BMP180;54819;48.030;14.710;2023-03-24T05:09:23;96805.00;;;13.16
68027;BMP180;54819;48.030;14.710;2023-03-24T05:11:51;96812.80;;;13.10
68027;BMP180;54819;48.030;14.710;2023-03-24T05:14:19;96818.60;;;13.10
68027;BMP180;54819;48.030;14.710;2023-03-24T05:16:45;96820.20;;;13.10
68027;BMP180;54819;48.030;14.710;2023-03-24T05:19:13;96819.80;;;13.00
68027;BMP180;54819;48.030;14.710;2023-03-24T05:21:40;96822.40;;;12.90
68027;BMP180;54819;48.030;14.710;2023-03-24T05:24:07;96822.80;;;12.90
68027;BMP180;54819;48.030;14.710;2023-03-24T05:26:34;96822.60;;;12.90
68027;BMP180;54819;48.030;14.710;2023-03-24T05:29:08;96821.00;;;12.94
68027;BMP180;54819;48.030;14.710;2023-03-24T05:31:35;96819.40;;;13.00
68027;BMP180;54819;48.030;14.710;2023-03-24T05:34:10;96815.00;;;13.00
68027;BMP180;54819;48.030;14.710;2023-03-24T05:36:46;96812.80;;;12.96
68027;BMP180;54819;48.030;14.710;2023-03-24T05:39:14;96816.60;;;12.90
68027;BMP180;54819;48.030;14.710;2023-03-24T05:41:48;96825.40;;;12.90
68027;BMP180;54819;48.030;14.710;2023-03-24T05:44:15;96833.00;;;12.96
68027;BMP180;54819;48.030;14.710;2023-03-24T05:46:45;96828.20;;;13.00
68027;BMP180;54819;48.030;14.710;2023-03-24T05:49:12;96832.80;;;13.00
68027;BMP180;54819;48.030;14.710;2023-03-24T05:51:41;96831.40;;;13.00
68027;BMP180;54819;48.030;14.710;2023-03-24T05:54:07;96830.20;;;13.10
68027;BMP180;54819;48.030;14.710;2023-03-24T05:56:46;96831.80;;;13.12
68027;BMP180;54819;48.030;14.710;2023-03-24T05:59:29;96831.00;;;13.20
68027;BMP180;54819;48.030;14.710;2023-03-24T06:02:10;96830.20;;;13.20
68027;BMP180;54819;48.030;14.710;2023-03-24T06:04:43;96829.00;;;13.28
68027;BMP180;54819;48.030;14.710;2023-03-24T06:07:17;96821.20;;;13.30
68027;BMP180;54819;48.030;14.710;2023-03-24T06:09:44;96813.00;;;13.34
68027;BMP180;54819;48.030;14.710;2023-03-24T06:12:13;96816.60;;;13.40
68027;BMP180;54819;48.030;14.710;2023-03-24T06:14:52;96812.80;;;13.46
68027;BMP180;54819;48.030;14.710;2023-03-24T06:17:18;96813.60;;;13.50
68027;BMP180;54819;48.030;14.710;2023-03-24T06:19:50;96817.60;;;13.54
68027;BMP180;54819;48.030;14.710;2023-03-24T06:22:37;96822.40;;;13.68
68027;BMP180;54819;48.030;14.710;2023-03-24T06:25:07;96822.00;;;13.72
68027;BMP180;54819;48.030;14.710;2023-03-24T06:27:36;96828.20;;;13.80
68027;BMP180;54819;48.030;14.710;2023-03-24T06:30:05;96828.80;;;13.94
68027;BMP180;54819;48.030;14.710;2023-03-24T06:32:32;96830.20;;;14.04
68027;BMP180;54819;48.030;14.710;2023-03-24T06:34:59;96835.80;;;14.20
68027;BMP180;54819;48.030;14.710;2023-03-24T06:37:34;96840.80;;;14.30
68027;BMP180;54819;48.030;14.710;2023-03-24T06:40:02;96857.20;;;14.40
68027;BMP180;54819;48.030;14.710;2023-03-24T06:42:31;96852.40;;;14.50
68027;BMP180;54819;48.030;14.710;2023-03-24T06:44:57;96852.80;;;14.52
68027;BMP180;54819;48.030;14.710;2023-03-24T06:47:24;96850.40;;;14.60
68027;BMP180;54819;48.030;14.710;2023-03-24T06:49:51;96856.20;;;14.66
68027;BMP180;54819;48.030;14.710;2023-03-24T06:52:18;96853.40;;;14.70
68027;BMP180;54819;48.030;14.710;2023-03-24T06:54:45;96855.00;;;14.80
68027;BMP180;54819;48.030;14.710;2023-03-24T06:57:12;96864.80;;;14.90
68027;BMP180;54819;48.030;14.710;2023-03-24T06:59:59;96865.00;;;15.00
68027;BMP180;54819;48.030;14.710;2023-03-24T07:02:29;96872.80;;;15.10
68027;BMP180;54819;48.030;14.710;2023-03-24T07:05:03;96870.00;;;15.16
68027;BMP180;54819;48.030;14.710;2023-03-24T07:07:39;96868.00;;;15.24
68027;BMP180;54819;48.030;14.710;2023-03-24T07:10:25;96870.40;;;15.34
68027;BMP180;54819;48.030;14.710;2023-03-24T07:12:51;96868.60;;;15.40
68027;BMP180;54819;48.030;14.710;2023-03-24T07:15:18;96871.00;;;15.40
68027;BMP180;54819;48.030;14.710;2023-03-24T07:17:45;96873.20;;;15.50
68027;BMP180;54819;48.030;14.710;2023-03-24T07:20:35;96878.00;;;15.64
68027;BMP180;54819;48.030;14.710;2023-03-24T07:23:13;96885.20;;;15.80
68027;BMP180;54819;48.030;14.710;2023-03-24T07:26:03;96880.60;;;16.00
68027;BMP180;54819;48.030;14.710;2023-03-24T07:28:45;96885.40;;;16.12
68027;BMP180;54819;48.030;14.710;2023-03-24T07:31:18;96881.40;;;16.22
68027;BMP180;54819;48.030;14.710;2023-03-24T07:33:47;96880.40;;;16.36
68027;BMP180;54819;48.030;14.710;2023-03-24T07:36:13;96878.60;;;16.46
68027;BMP180;54819;48.030;14.710;2023-03-24T07:38:40;96875.40;;;16.58
68027;BMP180;54819;48.030;14.710;2023-03-24T07:41:10;96873.80;;;16.70
68027;BMP180;54819;48.030;14.710;2023-03-24T07:43:39;96865.40;;;16.82
68027;BMP180;54819;48.030;14.710;2023-03-24T07:46:18;96862.20;;;17.00
68027;BMP180;54819;48.030;14.710;2023-03-24T07:48:45;96856.80;;;17.10
68027;BMP180;54819;48.030;14.710;2023-03-24T07:51:12;96859.40;;;17.20
68027;BMP180;54819;48.030;14.710;2023-03-24T07:53:52;96854.20;;;17.30
68027;BMP180;54819;48.030;14.710;2023-03-24T07:56:39;96846.20;;;17.50
68027;BMP180;54819;48.030;14.710;2023-03-24T07:59:06;96848.60;;;17.60
68027;BMP180;54819;48.030;14.710;2023-03-24T08:01:50;96846.00;;;17.70
68027;BMP180;54819;48.030;14.710;2023-03-24T08:04:45;96848.00;;;17.90
68027;BMP180;54819;48.030;14.710;2023-03-24T08:07:28;96843.00;;;18.00
68027;BMP180;54819;48.030;14.710;2023-03-24T08:09:55;96836.80;;;18.06
68027;BMP180;54819;48.030;14.710;2023-03-24T08:12:22;96831.20;;;18.10
68027;BMP180;54819;48.030;14.710;2023-03-24T08:14:49;96832.80;;;18.14
68027;BMP180;54819;48.030;14.710;2023-03-24T08:17:15;96836.60;;;18.20
68027;BMP180;54819;48.030;14.710;2023-03-24T08:19:42;96832.00;;;18.20
68027;BMP180;54819;48.030;14.710;2023-03-24T08:22:25;96825.60;;;18.30
68027;BMP180;54819;48.030;14.710;2023-03-24T08:24:52;96816.80;;;18.40
68027;BMP180;54819;48.030;14.710;2023-03-24T08:27:19;96811.60;;;18.46
68027;BMP180;54819;48.030;14.710;2023-03-24T08:29:45;96818.20;;;18.50
68027;BMP180;54819;48.030;14.710;2023-03-24T08:32:12;96822.60;;;18.60
68027;BMP180;54819;48.030;14.710;2023-03-24T08:34:39;96820.00;;;18.70
68027;BMP180;54819;48.030;14.710;2023-03-24T08:37:06;96812.80;;;18.80
68027;BMP180;54819;48.030;14.710;2023-03-24T08:39:33;96811.20;;;18.90
68027;BMP180;54819;48.030;14.710;2023-03-24T08:42:01;96815.60;;;19.06
68027;BMP180;54819;48.030;14.710;2023-03-24T08:44:28;96815.60;;;19.18
68027;BMP180;54819;48.030;14.710;2023-03-24T08:47:00;96813.00;;;19.30
68027;BMP180;54819;48.030;14.710;2023-03-24T08:49:27;96807.80;;;19.40
68027;BMP180;54819;48.030;14.710;2023-03-24T08:51:53;96802.20;;;19.50
68027;BMP180;54819;48.030;14.710;2023-03-24T08:54:20;96798.60;;;19.54
68027;BMP180;54819;48.030;14.710;2023-03-24T08:56:49;96797.40;;;19.60
68027;BMP180;54819;48.030;14.710;2023-03-24T08:59:17;96797.60;;;19.60
68027;BMP180;54819;48.030;14.710;2023-03-24T09:01:43;96801.40;;;19.70
68027;BMP180;54819;48.030;14.710;2023-03-24T09:04:11;96806.80;;;19.80
68027;BMP180;54819;48.030;14.710;2023-03-24T09:06:38;96801.20;;;19.90
68027;BMP180;54819;48.030;14.710;2023-03-24T09:09:05;96800.80;;;20.00
68027;BMP180;54819;48.030;14.710;2023-03-24T09:11:32;96795.80;;;20.10
68027;BMP180;54819;48.030;14.710;2023-03-24T09:14:00;96798.40;;;20.24
68027;BMP180;54819;48.030;14.710;2023-03-24T09:16:27;96794.80;;;20.30
68027;BMP180;54819;48.030;14.710;2023-03-24T09:18:54;96796.20;;;20.30
68027;BMP180;54819;48.030;14.710;2023-03-24T09:21:21;96797.80;;;20.40
68027;BMP180;54819;48.030;14.710;2023-03-24T09:23:47;96791.40;;;20.50
68027;BMP180;54819;48.030;14.710;2023-03-24T09:26:14;96786.00;;;20.56
68027;BMP180;54819;48.030;14.710;2023-03-24T09:28:41;96784.20;;;20.62
68027;BMP180;54819;48.030;14.710;2023-03-24T09:31:07;96781.20;;;20.72
68027;BMP180;54819;48.030;14.710;2023-03-24T09:33:34;96783.80;;;20.80
68027;BMP180;54819;48.030;14.710;2023-03-24T09:36:03;96789.20;;;20.90
68027;BMP180;54819;48.030;14.710;2023-03-24T09:38:30;96789.40;;;20.90
68027;BMP180;54819;48.030;14.710;2023-03-24T09:40:59;96790.60;;;20.80
68027;BMP180;54819;48.030;14.710;2023-03-24T09:46:48;96790.40;;;20.60
68027;BMP180;54819;48.030;14.710;2023-03-24T09:49:25;96796.60;;;20.48
68027;BMP180;54819;48.030;14.710;2023-03-24T09:52:05;96797.60;;;20.38
68027;BMP180;54819;48.030;14.710;2023-03-24T09:54:59;96802.40;;;20.30
68027;BMP180;54819;48.030;14.710;2023-03-24T09:57:36;96799.60;;;20.30
68027;BMP180;54819;48.030;14.710;2023-03-24T10:00:36;96796.20;;;20.28
68027;BMP180;54819;48.030;14.710;2023-03-24T10:03:32;96795.40;;;20.30
68027;BMP180;54819;48.030;14.710;2023-03-24T10:06:10;96797.80;;;20.38
68027;BMP180;54819;48.030;14.710;2023-03-24T10:08:45;96798.00;;;20.38
68027;BMP180;54819;48.030;14.710;2023-03-24T10:11:50;96797.80;;;20.40
68027;BMP180;54819;48.030;14.710;2023-03-24T10:14:55;96797.40;;;20.50
68027;BMP180;54819;48.030;14.710;2023-03-24T10:17:44;96796.20;;;20.64
68027;BMP180;54819;48.030;14.710;2023-03-24T10:20:26;96795.60;;;20.78
68027;BMP180;54819;48.030;14.710;2023-03-24T10:28:55;96803.00;;;21.06
68027;BMP180;54819;48.030;14.710;2023-03-24T10:31:31;96806.00;;;21.16
68027;BMP180;54819;48.030;14.710;2023-03-24T10:33:59;96807.40;;;21.26
68027;BMP180;54819;48.030;14.710;2023-03-24T10:36:27;96818.60;;;21.40
68027;BMP180;54819;48.030;14.710;2023-03-24T10:38:54;96823.00;;;21.50
68027;BMP180;54819;48.030;14.710;2023-03-24T10:41:27;96818.20;;;21.60
68027;BMP180;54819;48.030;14.710;2023-03-24T10:43:56;96817.00;;;21.70
68027;BMP180;54819;48.030;14.710;2023-03-24T10:46:27;96824.80;;;21.82
68027;BMP180;54819;48.030;14.710;2023-03-24T10:49:28;96827.20;;;21.96
68027;BMP180;54819;48.030;14.710;2023-03-24T10:52:01;96831.20;;;22.10
68027;BMP180;54819;48.030;14.710;2023-03-24T10:54:30;96836.80;;;22.20
68027;BMP180;54819;48.030;14.710;2023-03-24T10:59:36;96831.80;;;22.20
68027;BMP180;54819;48.030;14.710;2023-03-24T11:04:39;96834.60;;;22.30
68027;BMP180;54819;48.030;14.710;2023-03-24T11:07:22;96830.60;;;22.40
68027;BMP180;54819;48.030;14.710;2023-03-24T11:15:22;96841.80;;;22.60
68027;BMP180;54819;48.030;14.710;2023-03-24T11:18:13;96840.80;;;22.60
68027;BMP180;54819;48.030;14.710;2023-03-24T11:20:52;96832.60;;;22.68
68027;BMP180;54819;48.030;14.710;2023-03-24T11:23:32;96837.20;;;22.68
68027;BMP180;54819;48.030;14.710;2023-03-24T11:26:35;96844.60;;;22.70
68027;BMP180;54819;48.030;14.710;2023-03-24T11:29:23;96850.40;;;22.70
68027;BMP180;54819;48.030;14.710;2023-03-24T11:31:58;96856.00;;;22.76
68027;BMP180;54819;48.030;14.710;2023-03-24T11:34:37;96867.60;;;22.74
68027;BMP180;54819;48.030;14.710;2023-03-24T11:37:24;96868.60;;;22.72
68027;BMP180;54819;48.030;14.710;2023-03-24T11:42:48;96874.80;;;22.62
68027;BMP180;54819;48.030;14.710;2023-03-24T11:45:52;96881.60;;;22.60
68027;BMP180;54819;48.030;14.710;2023-03-24T11:50:59;96892.60;;;22.40
68027;BMP180;54819;48.030;14.710;2023-03-24T11:53:46;96888.00;;;22.30
68027;BMP180;54819;48.030;14.710;2023-03-24T11:56:34;96899.60;;;22.18
68027;BMP180;54819;48.030;14.710;2023-03-24T11:59:33;96901.00;;;22.02
68027;BMP180;54819;48.030;14.710;2023-03-24T12:02:57;96902.00;;;21.94
68027;BMP180;54819;48.030;14.710;2023-03-24T12:05:41;96902.40;;;21.92
68027;BMP180;54819;48.030;14.710;2023-03-24T12:08:28;96898.00;;;21.92
68027;BMP180;54819;48.030;14.710;2023-03-24T12:11:12;96901.00;;;21.92
68027;BMP180;54819;48.030;14.710;2023-03-24T12:13:48;96905.60;;;21.96
68027;BMP180;54819;48.030;14.710;2023-03-24T12:16:46;96907.80;;;22.00
68027;BMP180;54819;48.030;14.710;2023-03-24T12:20:03;96908.60;;;22.00
68027;BMP180;54819;48.030;14.710;2023-03-24T12:37:45;96931.40;;;21.30
68027;BMP180;54819;48.030;14.710;2023-03-24T12:40:49;96936.00;;;20.90
68027;BMP180;54819;48.030;14.710;2023-03-24T12:44:00;96941.60;;;20.68
68027;BMP180;54819;48.030;14.710;2023-03-24T12:47:06;96945.60;;;20.40
68027;BMP180;54819;48.030;14.710;2023-03-24T12:56:08;96935.80;;;19.58
68027;BMP180;54819;48.030;14.710;2023-03-24T12:59:10;96941.60;;;19.40
68027;BMP180;54819;48.030;14.710;2023-03-24T13:01:43;96942.60;;;19.18
68027;BMP180;54819;48.030;14.710;2023-03-24T13:04:39;96942.00;;;18.94
68027;BMP180;54819;48.030;14.710;2023-03-24T13:07:11;96947.40;;;18.80
68027;BMP180;54819;48.030;14.710;2023-03-24T13:10:05;96948.20;;;18.70
68027;BMP180;54819;48.030;14.710;2023-03-24T13:12:44;96946.20;;;18.56
68027;BMP180;54819;48.030;14.710;2023-03-24T13:27:01;96962.00;;;17.78
68027;BMP180;54819;48.030;14.710;2023-03-24T13:40:28;96967.60;;;17.00
68027;BMP180;54819;48.030;14.710;2023-03-24T13:43:10;96966.40;;;16.90
68027;BMP180;54819;48.030;14.710;2023-03-24T13:45:45;96973.00;;;16.80
68027;BMP180;54819;48.030;14.710;2023-03-24T13:48:37;96973.60;;;16.78
68027;BMP180;54819;48.030;14.710;2023-03-24T13:51:31;96967.60;;;16.70
68027;BMP180;54819;48.030;14.710;2023-03-24T13:54:29;96976.20;;;16.64
68027;BMP180;54819;48.030;14.710;2023-03-24T13:59:39;96977.20;;;16.60
68027;BMP180;54819;48.030;14.710;2023-03-24T14:02:20;96974.40;;;16.52
68027;BMP180;54819;48.030;14.710;2023-03-24T14:07:47;96975.40;;;16.50
68027;BMP180;54819;48.030;14.710;2023-03-24T14:26:11;96985.00;;;16.44
68027;BMP180;54819;48.030;14.710;2023-03-24T14:28:48;96982.40;;;16.44
68027;BMP180;54819;48.030;14.710;2023-03-24T14:31:19;96977.60;;;16.50
68027;BMP180;54819;48.030;14.710;2023-03-24T14:36:34;96978.80;;;16.60
68027;BMP180;54819;48.030;14.710;2023-03-24T14:39:32;96981.80;;;16.70
68027;BMP180;54819;48.030;14.710;2023-03-24T14:45:05;96975.60;;;16.70
68027;BMP180;54819;48.030;14.710;2023-03-24T14:47:59;96971.00;;;16.70
68027;BMP180;54819;48.030;14.710;2023-03-24T14:50:28;96966.00;;;16.70
68027;BMP180;54819;48.030;14.710;2023-03-24T14:52:59;96968.00;;;16.78
68027;BMP180;54819;48.030;14.710;2023-03-24T14:55:28;96956.00;;;16.90
68027;BMP180;54819;48.030;14.710;2023-03-24T14:58:07;96949.20;;;16.90
68027;BMP180;54819;48.030;14.710;2023-03-24T15:00:48;96939.80;;;16.90
68027;BMP180;54819;48.030;14.710;2023-03-24T15:03:47;96935.20;;;16.90
68027;BMP180;54819;48.030;14.710;2023-03-24T15:06:22;96933.60;;;16.96
68027;BMP180;54819;48.030;14.710;2023-03-24T15:08:56;96928.80;;;16.98
68027;BMP180;54819;48.030;14.710;2023-03-24T15:11:36;96927.40;;;17.00
68027;BMP180;54819;48.030;14.710;2023-03-24T15:14:05;96929.60;;;17.10
68027;BMP180;54819;48.030;14.710;2023-03-24T15:16:35;96923.20;;;17.20
68027;BMP180;54819;48.030;14.710;2023-03-24T15:19:26;96916.60;;;17.20
68027;BMP180;54819;48.030;14.710;2023-03-24T15:22:02;96909.00;;;17.20
68027;BMP180;54819;48.030;14.710;2023-03-24T15:24:36;96897.60;;;17.10
68027;BMP180;54819;48.030;14.710;2023-03-24T15:29:38;96870.60;;;17.10
68027;BMP180;54819;48.030;14.710;2023-03-24T15:32:06;96862.80;;;17.14
68027;BMP180;54819;48.030;14.710;2023-03-24T15:34:39;96856.00;;;17.20
68027;BMP180;54819;48.030;14.710;2023-03-24T15:37:23;96851.60;;;17.20
68027;BMP180;54819;48.030;14.710;2023-03-24T15:39:55;96847.80;;;17.20
68027;BMP180;54819;48.030;14.710;2023-03-24T15:42:42;96835.00;;;17.10
68027;BMP180;54819;48.030;14.710;2023-03-24T15:45:28;96838.00;;;17.00
68027;BMP180;54819;48.030;14.710;2023-03-24T15:47:57;96829.80;;;17.00
68027;BMP180;54819;48.030;14.710;2023-03-24T15:50:40;96830.20;;;17.00
68027;BMP180;54819;48.030;14.710;2023-03-24T15:55:42;96822.20;;;17.20
68027;BMP180;54819;48.030;14.710;2023-03-24T15:58:24;96817.80;;;17.20
68027;BMP180;54819;48.030;14.710;2023-03-24T16:00:56;96804.80;;;17.10
68027;BMP180;54819;48.030;14.710;2023-03-24T16:03:25;96798.00;;;17.00
68027;BMP180;54819;48.030;14.710;2023-03-24T16:05:55;96803.60;;;16.90
68027;BMP180;54819;48.030;14.710;2023-03-24T16:08:34;96791.80;;;16.84
68027;BMP180;54819;48.030;14.710;2023-03-24T16:11:13;96777.80;;;16.74
68027;BMP180;54819;48.030;14.710;2023-03-24T16:13:43;96763.40;;;16.60
68027;BMP180;54819;48.030;14.710;2023-03-24T16:18:44;96740.60;;;16.50
68027;BMP180;54819;48.030;14.710;2023-03-24T16:21:21;96734.20;;;16.40
68027;BMP180;54819;48.030;14.710;2023-03-24T16:23:51;96725.00;;;16.30
68027;BMP180;54819;48.030;14.710;2023-03-24T16:26:30;96722.80;;;16.30
68027;BMP180;54819;48.030;14.710;2023-03-24T16:29:17;96711.20;;;16.20
68027;BMP180;54819;48.030;14.710;2023-03-24T16:31:54;96709.00;;;16.20
68027;BMP180;54819;48.030;14.710;2023-03-24T16:34:22;96702.60;;;16.10
68027;BMP180;54819;48.030;14.710;2023-03-24T16:36:52;96696.60;;;16.10
68027;BMP180;54819;48.030;14.710;2023-03-24T16:39:24;96699.80;;;16.10
68027;BMP180;54819;48.030;14.710;2023-03-24T16:41:51;96711.60;;;16.10
68027;BMP180;54819;48.030;14.710;2023-03-24T16:44:22;96718.60;;;16.00
68027;BMP180;54819;48.030;14.710;2023-03-24T16:46:51;96730.80;;;16.00
68027;BMP180;54819;48.030;14.710;2023-03-24T16:49:21;96738.60;;;15.90
68027;BMP180;54819;48.030;14.710;2023-03-24T16:51:48;96744.80;;;15.70
68027;BMP180;54819;48.030;14.710;2023-03-24T16:54:15;96742.60;;;15.70
68027;BMP180;54819;48.030;14.710;2023-03-24T16:56:42;96752.80;;;15.60
68027;BMP180;54819;48.030;14.710;2023-03-24T16:59:09;96755.80;;;15.50
68027;BMP180;54819;48.030;14.710;2023-03-24T17:01:41;96757.00;;;15.50
68027;BMP180;54819;48.030;14.710;2023-03-24T17:04:19;96747.40;;;15.40
68027;BMP180;54819;48.030;14.710;2023-03-24T17:06:50;96739.80;;;15.40
68027;BMP180;54819;48.030;14.710;2023-03-24T17:09:21;96741.20;;;15.30
68027;BMP180;54819;48.030;14.710;2023-03-24T17:11:56;96751.20;;;15.20
68027;BMP180;54819;48.030;14.710;2023-03-24T17:14:24;96756.80;;;15.10
68027;BMP180;54819;48.030;14.710;2023-03-24T17:16:51;96757.60;;;15.00